createdAt,value
2023-07-11T00:04:42.114Z,24.80
2023-07-11T00:09:47.958Z,24.80
2023-07-11T00:14:50.165Z,24.80
2023-07-11T00:19:55.877Z,24.80
2023-07-11T00:24:57.469Z,24.80
2023-07-11T00:29:59.124Z,24.80
2023-07-11T00:35:01.015Z,24.80
2023-07-11T00:40:02.788Z,24.70
2023-07-11T00:45:05.258Z,24.80
2023-07-11T00:50:08.169Z,24.70
2023-07-11T00:55:11.460Z,24.70
2023-07-11T01:00:13.784Z,24.70
2023-07-11T01:05:15.505Z,24.70
2023-07-11T01:10:17.219Z,24.70
2023-07-11T01:15:18.803Z,24.70
2023-07-11T01:20:24.053Z,24.70
2023-07-11T01:25:25.697Z,24.70
2023-07-11T01:30:27.340Z,24.70
2023-07-11T01:35:28.990Z,24.60
2023-07-11T01:40:30.598Z,24.60
2023-07-11T01:45:32.260Z,24.60
2023-07-11T01:50:34.046Z,24.60
2023-07-11T01:55:35.707Z,24.60
2023-07-11T02:00:38.180Z,24.60
2023-07-11T02:05:40.669Z,24.60
2023-07-11T02:10:42.747Z,24.60
2023-07-11T02:15:44.545Z,24.60
2023-07-11T02:20:46.261Z,24.60
2023-07-11T02:25:47.869Z,24.50
2023-07-11T02:30:49.612Z,24.60
2023-07-11T02:35:51.422Z,24.60
2023-07-11T02:40:53.073Z,24.50
2023-07-11T02:45:55.711Z,24.50
2023-07-11T02:50:57.566Z,24.50
2023-07-11T02:55:59.178Z,24.50
2023-07-11T03:01:01.766Z,24.50
2023-07-11T03:06:04.304Z,24.50
2023-07-11T03:11:06.250Z,24.50
2023-07-11T03:16:08.130Z,24.60
2023-07-11T03:21:10.012Z,24.60
2023-07-11T03:26:11.832Z,24.50
2023-07-11T03:31:13.570Z,24.60
2023-07-11T03:36:15.424Z,24.60
2023-07-11T03:41:17.533Z,24.60
2023-07-11T03:46:19.451Z,24.60
2023-07-11T03:51:21.410Z,24.60
2023-07-11T03:56:23.006Z,24.60
2023-07-11T04:01:24.649Z,24.60
2023-07-11T04:06:26.461Z,24.50
2023-07-11T04:11:28.174Z,24.50
2023-07-11T04:16:29.876Z,24.50
2023-07-11T04:21:31.721Z,24.50
2023-07-11T04:26:33.400Z,24.60
2023-07-11T04:31:35.148Z,24.50
2023-07-11T04:36:36.914Z,24.50
2023-07-11T04:41:38.573Z,24.50
2023-07-11T04:51:55.569Z,24.60
2023-07-11T04:56:58.210Z,24.60
2023-07-11T05:02:00.240Z,24.50
2023-07-11T05:07:02.154Z,24.50
2023-07-11T05:12:04.032Z,24.50
2023-07-11T05:17:05.738Z,24.50
2023-07-11T05:22:08.116Z,24.60
2023-07-11T05:27:09.723Z,24.50
2023-07-11T05:32:11.678Z,24.60
2023-07-11T05:37:13.395Z,24.50
2023-07-11T05:42:15.032Z,24.50
2023-07-11T05:47:16.656Z,24.50
2023-07-11T05:52:18.255Z,24.50
2023-07-11T05:57:19.950Z,24.50
2023-07-11T06:02:21.717Z,24.50
2023-07-11T06:07:24.098Z,24.50
2023-07-11T06:12:25.802Z,24.50
2023-07-11T06:17:28.649Z,24.60
2023-07-11T06:22:30.294Z,24.60
2023-07-11T06:27:31.889Z,24.60
2023-07-11T06:32:33.620Z,24.60
2023-07-11T06:37:35.426Z,24.60
2023-07-11T06:42:37.140Z,24.70
2023-07-11T06:47:38.900Z,24.70
2023-07-11T06:52:40.777Z,24.70
2023-07-11T06:57:42.941Z,24.80
2023-07-11T07:02:45.230Z,24.80
2023-07-11T07:07:46.893Z,24.80
2023-07-11T07:12:48.552Z,24.80
2023-07-11T07:17:50.298Z,24.80
2023-07-11T07:22:52.058Z,24.90
2023-07-11T07:27:53.818Z,24.90
2023-07-11T07:32:55.518Z,24.90
2023-07-11T07:37:57.142Z,24.90
2023-07-11T07:42:58.838Z,24.90
2023-07-11T07:48:00.622Z,24.90
2023-07-11T07:53:02.548Z,24.90
2023-07-11T07:58:04.166Z,24.90
2023-07-11T08:03:06.042Z,24.90
2023-07-11T08:08:07.691Z,24.90
2023-07-11T08:13:09.605Z,24.90
2023-07-11T08:18:11.863Z,24.90
2023-07-11T08:23:13.519Z,24.90
2023-07-11T08:28:15.959Z,24.90
2023-07-11T08:33:17.555Z,24.90
2023-07-11T08:38:19.157Z,24.90
2023-07-11T08:43:24.709Z,24.90
2023-07-11T08:48:39.227Z,25.00
2023-07-11T08:53:44.090Z,25.00
2023-07-11T08:58:46.778Z,25.00
2023-07-11T09:03:49.042Z,25.00
2023-07-11T09:08:55.357Z,25.00
2023-07-11T09:14:16.029Z,25.00
2023-07-11T09:19:27.037Z,24.90
2023-07-11T09:24:34.411Z,24.90
2023-07-11T09:29:36.157Z,24.90
2023-07-11T09:34:38.749Z,24.90
2023-07-11T09:39:44.232Z,24.90
2023-07-11T09:45:15.023Z,24.90
2023-07-11T09:50:40.898Z,25.00
2023-07-11T09:55:47.350Z,25.00
2023-07-11T10:00:52.675Z,25.10
2023-07-11T10:05:54.349Z,25.20
2023-07-11T10:11:01.843Z,25.30
2023-07-11T10:16:05.599Z,25.30
2023-07-11T10:21:19.494Z,25.40
2023-07-11T10:26:23.372Z,25.40
2023-07-11T10:31:30.949Z,25.40
2023-07-11T10:36:47.294Z,25.50
2023-07-11T10:41:58.652Z,25.50
2023-07-11T10:47:00.315Z,25.50
2023-07-11T10:52:02.428Z,25.50
2023-07-11T10:57:11.088Z,25.60
2023-07-11T11:02:18.086Z,25.50
2023-07-11T11:07:35.905Z,25.50
2023-07-11T11:12:48.535Z,25.50
2023-07-11T11:18:09.178Z,25.50
2023-07-11T11:23:23.053Z,25.50
2023-07-11T11:28:30.566Z,25.50
2023-07-11T11:33:45.831Z,25.50
2023-07-11T11:38:59.108Z,25.50
2023-07-11T11:49:36.123Z,25.50
2023-07-11T11:54:36.093Z,25.50
2023-07-11T11:59:38.774Z,25.50
2023-07-11T12:04:53.629Z,25.50
2023-07-11T12:09:57.432Z,25.50
2023-07-11T12:15:00.566Z,25.40
2023-07-11T12:20:02.733Z,25.40
2023-07-11T12:25:07.673Z,25.50
2023-07-11T12:30:15.267Z,25.50
2023-07-11T12:35:17.218Z,25.50
2023-07-11T12:40:18.860Z,25.50
2023-07-11T12:45:24.987Z,25.50
2023-07-11T12:50:29.726Z,25.50
2023-07-11T12:55:31.579Z,25.40
2023-07-11T13:00:36.018Z,25.50
2023-07-11T13:05:37.726Z,25.50
2023-07-11T13:10:39.450Z,25.50
2023-07-11T13:15:41.915Z,25.50
2023-07-11T13:20:43.610Z,25.50
2023-07-11T13:25:45.194Z,25.50
2023-07-11T13:30:54.828Z,25.50
2023-07-11T13:36:08.187Z,25.50
2023-07-11T13:41:17.251Z,25.40
2023-07-11T13:46:19.211Z,25.50
2023-07-11T13:51:24.972Z,25.40
2023-07-11T13:56:26.753Z,25.40
2023-07-11T14:01:35.497Z,25.40
2023-07-11T14:06:37.433Z,25.40
2023-07-11T14:11:39.411Z,25.40
2023-07-11T14:16:41.682Z,25.40
2023-07-11T14:21:43.308Z,25.40
2023-07-11T14:26:45.275Z,25.40
2023-07-11T14:31:48.567Z,25.40
2023-07-11T14:36:51.146Z,25.40
2023-07-11T14:41:52.832Z,25.40
2023-07-11T14:46:54.997Z,25.40
2023-07-11T14:51:56.806Z,25.40
2023-07-11T14:57:15.457Z,25.50
2023-07-11T15:02:22.704Z,25.50
2023-07-11T15:17:33.761Z,25.50
2023-07-11T15:22:35.536Z,25.50
2023-07-11T15:27:37.183Z,25.50
2023-07-11T15:32:38.948Z,25.50
2023-07-11T15:37:40.637Z,25.50
2023-07-11T15:42:42.619Z,25.40
2023-07-11T15:47:44.358Z,25.50
2023-07-11T15:52:46.130Z,25.50
2023-07-11T15:57:48.017Z,25.50
2023-07-11T16:02:50.174Z,25.50
2023-07-11T16:07:51.972Z,25.50
2023-07-11T16:12:53.762Z,25.50
2023-07-11T16:17:55.525Z,25.50
2023-07-11T16:22:57.205Z,25.50
2023-07-11T16:28:00.207Z,25.50
2023-07-11T16:33:02.771Z,25.50
2023-07-11T16:38:06.401Z,25.50
2023-07-11T16:43:09.685Z,25.50
2023-07-11T16:48:12.788Z,25.50
2023-07-11T16:53:17.987Z,25.50
2023-07-11T16:58:21.117Z,25.50
2023-07-11T17:03:23.333Z,25.50
2023-07-11T17:08:27.508Z,25.50
2023-07-11T17:13:30.046Z,25.50
2023-07-11T17:18:32.210Z,25.50
2023-07-11T17:23:34.040Z,25.60
2023-07-11T17:28:35.649Z,25.50
2023-07-11T17:33:37.394Z,25.50
2023-07-11T17:38:39.011Z,25.60
2023-07-11T17:43:42.410Z,25.60
2023-07-11T17:48:48.382Z,25.60
2023-07-11T17:53:50.200Z,25.60
2023-07-11T17:58:53.450Z,25.60
2023-07-11T18:03:55.211Z,25.60
2023-07-11T18:08:56.953Z,25.60
2023-07-11T18:13:58.642Z,25.70
2023-07-11T18:19:00.821Z,25.70
2023-07-11T18:24:02.698Z,25.60
2023-07-11T18:29:04.299Z,25.60
2023-07-11T18:34:05.934Z,25.60
2023-07-11T18:39:09.538Z,25.60
2023-07-11T18:44:11.278Z,25.60
2023-07-11T18:49:13.305Z,25.60
2023-07-11T18:54:14.961Z,25.60
2023-07-11T18:59:16.622Z,25.50
2023-07-11T19:04:18.274Z,25.50
2023-07-11T19:09:19.866Z,25.50
2023-07-11T19:14:21.470Z,25.50
2023-07-11T19:19:28.244Z,25.50
2023-07-11T19:24:29.859Z,25.50
2023-07-11T19:29:31.626Z,25.50
2023-07-11T19:34:33.393Z,25.50
2023-07-11T19:39:34.989Z,25.50
2023-07-11T19:44:36.589Z,25.50
2023-07-11T19:49:38.805Z,25.50
2023-07-11T19:54:40.470Z,25.50
2023-07-11T19:59:42.153Z,25.50
2023-07-11T20:04:44.470Z,25.50
2023-07-11T20:09:46.146Z,25.50
2023-07-11T20:14:50.067Z,25.40
2023-07-11T20:19:52.018Z,25.40
2023-07-11T20:24:53.701Z,25.40
2023-07-11T20:29:55.303Z,25.40
2023-07-11T20:34:57.083Z,25.40
2023-07-11T20:39:58.684Z,25.40
2023-07-11T20:45:00.285Z,25.40
2023-07-11T20:50:02.003Z,25.40
2023-07-11T20:55:03.908Z,25.40
2023-07-11T21:00:31.973Z,25.40
2023-07-11T21:05:36.149Z,25.40
2023-07-11T21:10:39.556Z,25.40
2023-07-11T21:15:42.926Z,25.30
2023-07-11T21:20:45.914Z,25.40
2023-07-11T21:25:47.793Z,25.40
2023-07-11T21:30:50.520Z,25.40
2023-07-11T21:35:53.897Z,25.40
2023-07-11T21:40:57.073Z,25.30
2023-07-11T21:45:58.882Z,25.30
2023-07-11T21:51:00.858Z,25.30
2023-07-11T21:56:02.869Z,25.40
2023-07-11T22:01:05.141Z,25.30
2023-07-11T22:06:23.661Z,25.30
2023-07-11T22:11:25.369Z,25.30
2023-07-11T22:16:28.572Z,25.30
2023-07-11T22:21:30.243Z,25.30
2023-07-11T22:26:32.421Z,25.30
2023-07-11T22:31:34.269Z,25.30
2023-07-11T22:36:35.997Z,25.30
2023-07-11T22:41:37.614Z,25.30
2023-07-11T22:46:39.253Z,25.30
2023-07-11T22:51:41.278Z,25.30
2023-07-11T22:56:43.290Z,25.30
2023-07-11T23:01:44.930Z,25.30
2023-07-11T23:06:46.714Z,25.30
2023-07-11T23:11:48.649Z,25.30
2023-07-11T23:16:50.505Z,25.30
2023-07-11T23:21:52.140Z,25.30
2023-07-11T23:26:53.750Z,25.30
2023-07-11T23:31:55.342Z,25.30
2023-07-11T23:36:57.139Z,25.30
2023-07-11T23:41:58.784Z,25.30
2023-07-11T23:47:00.469Z,25.30
2023-07-11T23:52:02.400Z,25.30
2023-07-11T23:57:04.042Z,25.30
